Time;durP1;ratioP1;P1;durP2;ratioP2;P2;SDS_P1;SDS_P2;PMS_P1;PMS_P2;Temp;Humidity;BMP_temperature;BMP_pressure;BME280_temperature;BME280_humidity;BME280_pressure;Samples;Min_cycle;Max_cycle;Signal;HPM_P1;HPM_P2
2022/06/25 00:02:16;;;;;;;2.67;2.47;;;19.70;99.90;;;;;;5069458;28;20269;-71
2022/06/25 00:07:29;;;;;;;4.35;2.60;;;19.70;99.90;;;;;;5069480;28;20205;-74
2022/06/25 00:09:56;;;;;;;6.57;3.53;;;19.70;99.90;;;;;;5069881;28;20242;-71
2022/06/25 00:12:36;;;;;;;4.85;3.20;;;19.70;99.90;;;;;;5071311;28;20214;-71
2022/06/25 00:15:05;;;;;;;3.05;2.08;;;19.70;99.90;;;;;;5073573;28;20205;-71
2022/06/25 00:17:32;;;;;;;2.60;2.40;;;19.60;99.90;;;;;;5073157;28;20591;-73
2022/06/25 00:20:01;;;;;;;3.53;2.83;;;19.60;99.90;;;;;;5073136;28;20201;-73
2022/06/25 00:22:28;;;;;;;4.78;2.92;;;19.60;99.90;;;;;;5073062;28;20242;-74
2022/06/25 00:24:55;;;;;;;2.95;2.63;;;19.60;99.90;;;;;;5073273;28;20340;-73
2022/06/25 00:27:22;;;;;;;3.75;3.42;;;19.60;99.90;;;;;;5072927;28;20260;-73
2022/06/25 00:29:49;;;;;;;2.42;2.03;;;19.50;99.90;;;;;;5072882;28;20260;-71
2022/06/25 00:32:17;;;;;;;3.33;2.30;;;19.50;99.90;;;;;;5072706;28;20627;-73
2022/06/25 00:34:44;;;;;;;2.75;2.55;;;19.50;99.90;;;;;;5073001;28;20210;-73
2022/06/25 00:37:12;;;;;;;4.95;2.85;;;19.50;99.90;;;;;;5058728;28;20261;-73
2022/06/25 00:39:40;;;;;;;2.47;2.33;;;19.40;99.90;;;;;;5072968;28;20206;-73
2022/06/25 00:42:10;;;;;;;3.08;2.20;;;19.40;99.90;;;;;;5072290;28;20233;-73
2022/06/25 00:44:37;;;;;;;2.50;2.30;;;19.40;99.90;;;;;;5072830;28;20293;-73
2022/06/25 00:47:05;;;;;;;2.67;2.13;;;19.30;99.90;;;;;;5073067;28;20199;-73
2022/06/25 00:49:33;;;;;;;2.47;1.77;;;19.30;99.90;;;;;;5072692;28;20202;-73
2022/06/25 00:52:03;;;;;;;2.65;2.45;;;19.30;99.90;;;;;;5072759;28;20256;-72
2022/06/25 00:54:36;;;;;;;2.58;2.38;;;19.30;99.90;;;;;;5072580;28;20263;-72
2022/06/25 00:57:06;;;;;;;2.92;2.38;;;19.20;99.90;;;;;;5072619;28;20243;-74
2022/06/25 00:59:40;;;;;;;2.97;2.45;;;19.20;99.90;;;;;;5072862;28;20202;-72
2022/06/25 01:02:07;;;;;;;4.93;2.45;;;19.20;99.90;;;;;;5072436;28;20261;-72
2022/06/25 01:04:34;;;;;;;5.72;2.58;;;19.10;99.90;;;;;;5072976;28;20203;-72
2022/06/25 01:07:01;;;;;;;3.20;2.08;;;19.20;99.90;;;;;;5072861;28;20214;-72
2022/06/25 01:09:28;;;;;;;3.00;2.50;;;19.10;99.90;;;;;;5071996;28;20301;-72
2022/06/25 01:11:57;;;;;;;2.45;1.95;;;19.20;99.90;;;;;;5071958;28;20206;-72
2022/06/25 01:14:24;;;;;;;2.53;2.33;;;19.10;99.90;;;;;;5071795;28;20210;-73
2022/06/25 01:16:51;;;;;;;2.20;1.85;;;19.10;99.90;;;;;;5072507;28;20268;-73
2022/06/25 01:19:18;;;;;;;4.07;3.40;;;19.10;99.90;;;;;;5072008;28;20206;-72
2022/06/25 01:21:45;;;;;;;4.15;2.60;;;19.10;99.90;;;;;;5072045;28;20556;-70
2022/06/25 01:24:13;;;;;;;3.95;2.70;;;19.00;99.90;;;;;;5070889;28;20261;-72
2022/06/25 01:26:41;;;;;;;2.45;2.25;;;18.90;99.90;;;;;;5071892;28;20210;-72
2022/06/25 01:29:09;;;;;;;3.45;3.15;;;18.90;99.90;;;;;;5071247;28;20198;-72
2022/06/25 01:31:36;;;;;;;3.60;2.55;;;19.00;99.90;;;;;;5072035;28;20240;-71
2022/06/25 01:34:04;;;;;;;2.72;2.53;;;18.90;99.90;;;;;;5071962;28;20732;-71
2022/06/25 01:36:31;;;;;;;3.22;2.33;;;18.90;99.90;;;;;;5071857;28;20264;-72
2022/06/25 01:38:57;;;;;;;3.42;3.13;;;18.90;99.90;;;;;;5071425;28;20206;-72
2022/06/25 01:41:26;;;;;;;3.10;2.25;;;18.90;99.90;;;;;;5071340;28;20627;-72
2022/06/25 01:43:53;;;;;;;2.63;2.42;;;18.90;99.90;;;;;;5071885;28;20233;-71
2022/06/25 01:46:20;;;;;;;3.47;3.03;;;18.90;99.90;;;;;;5071178;28;20206;-71
2022/06/25 01:48:47;;;;;;;3.63;2.88;;;18.90;99.90;;;;;;5071721;28;20670;-70
2022/06/25 01:51:15;;;;;;;2.30;2.10;;;18.80;99.90;;;;;;5071536;28;20252;-71
2022/06/25 01:53:42;;;;;;;3.10;2.90;;;18.80;99.90;;;;;;5071099;28;20216;-69
2022/06/25 01:56:09;;;;;;;2.95;2.63;;;18.70;99.90;;;;;;5070500;28;20268;-69
2022/06/25 01:58:37;;;;;;;2.58;2.38;;;18.80;99.90;;;;;;5069341;28;20647;-69
2022/06/25 02:01:05;;;;;;;4.03;2.53;;;18.80;99.90;;;;;;5071502;28;20202;-71
2022/06/25 02:03:32;;;;;;;2.67;1.95;;;18.80;99.90;;;;;;5071310;28;20238;-74
2022/06/25 02:05:59;;;;;;;2.55;2.20;;;18.70;99.90;;;;;;5071051;28;20635;-71
2022/06/25 02:08:29;;;;;;;2.70;2.50;;;18.80;99.90;;;;;;5070314;28;20214;-71
2022/06/25 02:10:56;;;;;;;5.50;2.53;;;18.80;99.90;;;;;;5071271;28;20751;-73
2022/06/25 02:13:24;;;;;;;3.63;2.38;;;18.70;99.90;;;;;;5070641;28;20209;-71
2022/06/25 02:15:53;;;;;;;2.40;2.20;;;18.70;99.90;;;;;;5070878;28;20202;-71
2022/06/25 02:18:20;;;;;;;3.45;2.20;;;18.60;99.90;;;;;;5070625;28;20202;-72
2022/06/25 02:20:48;;;;;;;2.80;2.50;;;18.60;99.90;;;;;;5070879;28;20268;-70
2022/06/25 02:23:16;;;;;;;3.17;2.40;;;18.60;99.90;;;;;;5070270;28;20229;-71
2022/06/25 02:25:43;;;;;;;3.20;2.40;;;18.60;99.90;;;;;;5070669;28;20207;-72
2022/06/25 02:28:11;;;;;;;2.38;2.00;;;18.60;99.90;;;;;;5070546;28;20644;-72
2022/06/25 02:30:38;;;;;;;2.42;2.22;;;18.60;99.90;;;;;;5070944;28;20242;-72
2022/06/25 02:33:11;;;;;;;2.72;2.00;;;18.60;99.90;;;;;;5070795;28;20232;-72
2022/06/25 02:35:39;;;;;;;2.65;2.45;;;18.60;99.90;;;;;;5069862;28;20271;-72
2022/06/25 02:38:06;;;;;;;3.45;2.58;;;18.60;99.90;;;;;;5070296;28;20297;-72
2022/06/25 02:40:33;;;;;;;2.83;2.63;;;18.50;99.90;;;;;;5071025;28;20670;-72
2022/06/25 02:43:01;;;;;;;2.83;2.63;;;18.50;99.90;;;;;;5070490;28;20237;-73
2022/06/25 02:45:28;;;;;;;4.07;2.65;;;18.50;99.90;;;;;;5070351;28;20217;-73
2022/06/25 02:47:56;;;;;;;2.25;2.05;;;18.50;99.90;;;;;;5070316;28;20263;-72
2022/06/25 02:50:25;;;;;;;3.20;3.00;;;18.50;99.90;;;;;;5070482;28;20210;-72
2022/06/25 02:52:52;;;;;;;2.75;2.45;;;18.40;99.90;;;;;;5070187;28;20214;-72
2022/06/25 02:58:54;;;;;;;3.67;2.75;;;18.40;99.90;;;;;;5070224;28;20335;-73
2022/06/25 03:00:52;;;;;;;2.35;2.00;;;18.30;99.90;;;;;;5070486;28;20567;-72
2022/06/25 03:03:19;;;;;;;3.03;2.70;;;18.30;99.90;;;;;;5070029;28;20283;-71
2022/06/25 03:05:47;;;;;;;3.35;2.75;;;18.20;99.90;;;;;;5070072;28;20228;-71
2022/06/25 03:08:14;;;;;;;3.00;2.47;;;18.20;99.90;;;;;;5070193;28;20216;-71
2022/06/25 03:10:41;;;;;;;6.13;2.97;;;18.20;99.90;;;;;;5070390;28;20206;-71
2022/06/25 03:13:08;;;;;;;2.47;2.28;;;18.20;99.90;;;;;;5069563;28;20252;-71
2022/06/25 03:15:35;;;;;;;2.92;2.00;;;18.20;99.90;;;;;;5070461;28;20669;-70
2022/06/25 03:18:02;;;;;;;2.90;2.60;;;18.20;99.90;;;;;;5070315;28;20671;-70
2022/06/25 03:20:30;;;;;;;3.22;2.15;;;18.30;99.90;;;;;;5069636;28;20267;-70
2022/06/25 03:22:58;;;;;;;2.42;2.22;;;18.30;99.90;;;;;;5070144;28;20229;-71
2022/06/25 03:25:25;;;;;;;3.00;2.80;;;18.30;99.90;;;;;;5069816;28;20704;-70
2022/06/25 03:27:52;;;;;;;2.92;2.63;;;18.20;99.90;;;;;;5070374;28;20271;-70
2022/06/25 03:30:19;;;;;;;2.60;2.35;;;18.20;99.90;;;;;;5056021;28;20201;-71
2022/06/25 03:32:46;;;;;;;3.63;2.38;;;18.20;99.90;;;;;;5070431;28;20206;-71
2022/06/25 03:35:13;;;;;;;2.83;2.63;;;18.10;99.90;;;;;;5069392;28;20260;-71
2022/06/25 03:37:40;;;;;;;2.70;2.25;;;18.00;99.90;;;;;;5070101;28;20234;-71
2022/06/25 03:40:09;;;;;;;2.58;2.38;;;18.00;99.90;;;;;;5069810;28;20259;-71
2022/06/25 03:42:36;;;;;;;2.50;2.30;;;17.90;99.90;;;;;;5069874;28;20218;-71
2022/06/25 03:45:04;;;;;;;2.25;1.95;;;17.90;99.90;;;;;;5070145;28;20735;-72
2022/06/25 03:47:31;;;;;;;3.00;2.58;;;18.00;99.90;;;;;;5072612;28;20263;-73
2022/06/25 03:49:58;;;;;;;2.45;2.25;;;18.00;99.90;;;;;;5073966;28;20272;-72
2022/06/25 03:52:25;;;;;;;2.95;2.75;;;17.90;99.90;;;;;;5073429;28;20720;-73
2022/06/25 03:54:52;;;;;;;5.65;2.60;;;17.90;99.90;;;;;;5073658;28;20209;-73
2022/06/25 03:57:21;;;;;;;3.15;2.95;;;17.90;99.90;;;;;;5073008;28;20206;-73
2022/06/25 03:59:48;;;;;;;2.92;2.72;;;17.80;99.90;;;;;;5073973;28;20228;-72
2022/06/25 04:02:15;;;;;;;2.17;2.00;;;17.90;99.90;;;;;;5073019;28;20709;-72
2022/06/25 04:04:42;;;;;;;5.22;2.92;;;17.90;99.90;;;;;;5073094;28;20279;-72
2022/06/25 04:07:09;;;;;;;7.90;2.72;;;17.80;99.90;;;;;;5073085;28;20206;-72
2022/06/25 04:09:36;;;;;;;2.55;2.17;;;17.70;99.90;;;;;;5073779;28;20686;-72
2022/06/25 04:12:03;;;;;;;2.40;2.20;;;17.70;99.90;;;;;;5073489;28;20210;-72
2022/06/25 04:14:32;;;;;;;2.90;2.70;;;17.50;99.90;;;;;;5073402;28;20206;-72
2022/06/25 04:16:59;;;;;;;2.22;2.13;;;17.60;99.90;;;;;;5073234;28;20267;-72
2022/06/25 04:19:25;;;;;;;2.55;2.15;;;17.60;99.90;;;;;;5072743;28;20210;-72
2022/06/25 04:21:52;;;;;;;3.88;3.65;;;17.70;99.90;;;;;;5073305;28;20275;-72
2022/06/25 04:24:19;;;;;;;3.60;2.55;;;17.70;99.90;;;;;;5072691;28;20230;-72
2022/06/25 04:26:46;;;;;;;2.60;2.40;;;17.70;99.90;;;;;;5073369;28;20251;-72
2022/06/25 04:29:12;;;;;;;3.10;2.80;;;17.60;99.90;;;;;;5072476;28;20210;-71
2022/06/25 04:31:42;;;;;;;3.75;2.30;;;17.70;99.90;;;;;;5073058;28;20206;-70
2022/06/25 04:34:09;;;;;;;2.70;2.05;;;17.60;99.90;;;;;;5072289;28;20210;-70
2022/06/25 04:36:37;;;;;;;3.20;2.90;;;17.60;99.90;;;;;;5072830;28;20210;-71
2022/06/25 04:39:04;;;;;;;3.08;2.63;;;17.60;99.90;;;;;;5073538;28;20209;-72
2022/06/25 04:41:31;;;;;;;3.65;2.53;;;17.50;99.90;;;;;;5072520;28;20742;-70
2022/06/25 04:43:58;;;;;;;3.08;2.22;;;17.50;99.90;;;;;;5072952;28;20338;-70
2022/06/25 04:46:25;;;;;;;2.85;2.65;;;17.50;99.90;;;;;;5072454;28;20266;-69
2022/06/25 04:48:53;;;;;;;3.85;2.80;;;17.50;99.90;;;;;;5072447;28;20704;-70
2022/06/25 04:51:20;;;;;;;4.13;2.13;;;17.50;99.90;;;;;;5072730;28;20206;-71
2022/06/25 04:53:56;;;;;;;3.00;2.42;;;17.60;99.90;;;;;;5072722;28;20727;-71
2022/06/25 04:56:23;;;;;;;3.53;3.10;;;17.70;99.90;;;;;;5072245;28;20750;-71
2022/06/25 04:58:51;;;;;;;3.40;3.00;;;17.50;99.90;;;;;;5071516;28;20263;-71
2022/06/25 05:01:17;;;;;;;3.42;2.80;;;17.60;99.90;;;;;;5072029;28;20297;-71
2022/06/25 05:03:44;;;;;;;3.20;2.78;;;17.70;99.90;;;;;;5072498;28;20291;-72
2022/06/25 05:06:13;;;;;;;2.47;2.28;;;17.70;99.90;;;;;;5071919;28;20203;-71
2022/06/25 05:08:41;;;;;;;4.70;2.75;;;17.80;99.90;;;;;;5072380;28;20255;-71
2022/06/25 05:11:08;;;;;;;2.40;2.25;;;17.80;99.90;;;;;;5072191;28;20644;-70
2022/06/25 05:13:35;;;;;;;3.50;2.55;;;17.90;99.90;;;;;;5072298;28;20214;-69
2022/06/25 05:16:02;;;;;;;2.58;2.35;;;17.80;99.90;;;;;;5072637;28;20206;-70
2022/06/25 05:18:29;;;;;;;2.70;2.50;;;17.90;99.90;;;;;;5071647;28;20263;-69
2022/06/25 05:20:56;;;;;;;2.60;2.33;;;17.90;99.90;;;;;;5072183;28;20267;-69
2022/06/25 05:23:24;;;;;;;3.08;2.55;;;17.90;99.90;;;;;;5071989;28;20202;-69
2022/06/25 05:25:51;;;;;;;3.30;2.35;;;18.00;99.90;;;;;;5071983;28;20232;-69
2022/06/25 05:28:18;;;;;;;3.58;2.67;;;18.10;99.90;;;;;;5071421;28;20210;-70
2022/06/25 05:30:45;;;;;;;3.40;2.53;;;18.20;99.90;;;;;;5071599;28;20202;-69
2022/06/25 05:33:12;;;;;;;2.00;1.80;;;18.30;99.90;;;;;;5071677;28;20202;-70
2022/06/25 05:35:39;;;;;;;2.53;2.33;;;18.40;99.90;;;;;;5071884;28;20252;-69
2022/06/25 05:38:07;;;;;;;3.00;2.80;;;18.50;99.90;;;;;;5072013;28;20248;-69
2022/06/25 05:40:36;;;;;;;2.45;2.25;;;18.60;99.90;;;;;;5072045;28;20241;-69
2022/06/25 05:43:03;;;;;;;2.88;2.15;;;18.60;99.90;;;;;;5071990;28;20218;-70
2022/06/25 05:45:30;;;;;;;3.60;1.75;;;18.60;99.90;;;;;;5070914;28;20266;-70
2022/06/25 05:47:57;;;;;;;2.95;1.75;;;18.70;99.90;;;;;;5071618;28;20206;-70
2022/06/25 05:50:24;;;;;;;3.67;2.42;;;18.80;99.90;;;;;;5071503;28;20252;-70
2022/06/25 05:52:53;;;;;;;3.60;2.20;;;18.70;99.90;;;;;;5070349;28;20755;-69
2022/06/25 05:55:20;;;;;;;4.35;2.65;;;18.80;99.90;;;;;;5070328;28;20210;-70
2022/06/25 05:57:48;;;;;;;2.55;2.35;;;19.00;99.90;;;;;;5070763;28;20260;-71
2022/06/25 06:00:16;;;;;;;1.92;1.83;;;19.00;99.90;;;;;;5069711;28;20263;-71
2022/06/25 06:02:43;;;;;;;2.78;2.42;;;19.10;99.90;;;;;;5071327;28;20264;-70
2022/06/25 06:05:11;;;;;;;3.97;2.30;;;19.10;99.90;;;;;;5070589;28;20616;-72
2022/06/25 06:07:38;;;;;;;2.03;1.83;;;19.30;99.90;;;;;;5071255;28;20677;-72
2022/06/25 06:10:06;;;;;;;2.42;2.22;;;19.50;99.90;;;;;;5071288;28;20211;-72
2022/06/25 06:12:33;;;;;;;2.55;2.30;;;19.70;99.90;;;;;;5071051;28;20615;-70
2022/06/25 06:15:01;;;;;;;4.90;2.00;;;19.60;99.90;;;;;;5070931;28;20738;-72
2022/06/25 06:17:28;;;;;;;2.30;2.10;;;19.80;99.90;;;;;;5070345;28;20267;-72
2022/06/25 06:19:55;;;;;;;1.60;1.50;;;20.00;99.90;;;;;;5071016;28;20252;-70
2022/06/25 06:22:23;;;;;;;3.22;2.17;;;19.90;99.90;;;;;;5070520;28;20207;-70
2022/06/25 06:24:49;;;;;;;1.98;1.88;;;20.10;99.90;;;;;;5070592;28;20291;-76
2022/06/25 06:27:16;;;;;;;2.15;1.90;;;19.90;99.90;;;;;;5070856;28;20268;-74
2022/06/25 06:29:43;;;;;;;4.22;1.98;;;20.00;99.90;;;;;;5070601;28;20264;-77
2022/06/25 06:32:12;;;;;;;3.42;2.10;;;20.10;99.90;;;;;;5070609;28;20209;-74
2022/06/25 06:34:39;;;;;;;2.65;1.98;;;20.10;99.90;;;;;;5070582;28;20852;-78
2022/06/25 06:37:06;;;;;;;2.70;2.50;;;20.10;99.90;;;;;;5070693;28;20202;-74
2022/06/25 06:39:33;;;;;;;2.20;2.00;;;20.00;99.90;;;;;;5071101;28;20209;-78
2022/06/25 06:42:00;;;;;;;2.22;1.90;;;20.00;99.90;;;;;;5070637;28;20275;-78
2022/06/25 06:44:27;;;;;;;4.55;2.22;;;19.90;99.90;;;;;;5069851;28;20230;-77
2022/06/25 06:46:54;;;;;;;1.75;1.63;;;19.70;99.90;;;;;;5070404;28;20735;-75
2022/06/25 06:49:22;;;;;;;2.67;2.22;;;19.70;99.90;;;;;;5070075;28;20256;-73
2022/06/25 06:51:49;;;;;;;3.67;2.00;;;19.70;99.90;;;;;;5070495;28;20581;-74
2022/06/25 06:54:16;;;;;;;2.30;2.10;;;20.00;99.90;;;;;;5069923;28;20210;-75
2022/06/25 06:56:43;;;;;;;3.95;2.97;;;20.20;99.90;;;;;;5070825;28;20259;-73
2022/06/25 06:59:10;;;;;;;2.20;2.00;;;20.50;99.90;;;;;;5067075;28;20281;-75
2022/06/25 07:01:37;;;;;;;2.55;1.98;;;20.60;99.90;;;;;;5070163;28;20293;-73
2022/06/25 07:04:04;;;;;;;4.05;2.00;;;20.90;99.90;;;;;;5070436;28;20229;-75
2022/06/25 07:06:32;;;;;;;3.58;1.35;;;21.10;99.90;;;;;;5070018;28;20206;-71
2022/06/25 07:08:59;;;;;;;2.25;1.80;;;21.30;99.90;;;;;;5070012;28;20780;-73
2022/06/25 07:11:29;;;;;;;2.42;1.88;;;21.50;99.90;;;;;;5070169;28;20210;-73
2022/06/25 07:13:57;;;;;;;2.50;2.03;;;22.20;99.90;;;;;;5070133;28;20202;-74
2022/06/25 07:16:24;;;;;;;2.05;1.60;;;22.50;99.90;;;;;;5069791;28;20213;-74
2022/06/25 07:18:51;;;;;;;2.22;2.03;;;22.30;99.90;;;;;;5069876;28;20213;-73
2022/06/25 07:21:18;;;;;;;3.83;1.60;;;22.20;99.90;;;;;;5070844;28;20214;-70
2022/06/25 07:23:47;;;;;;;3.85;2.75;;;22.40;99.90;;;;;;5074385;28;20267;-73
2022/06/25 07:26:14;;;;;;;3.78;1.95;;;22.60;99.90;;;;;;5073894;28;20210;-71
2022/06/25 07:28:41;;;;;;;4.65;2.13;;;22.70;99.90;;;;;;5074411;28;20263;-72
2022/06/25 07:31:08;;;;;;;1.80;1.70;;;22.90;99.90;;;;;;5073943;28;20209;-72
2022/06/25 07:33:35;;;;;;;1.70;1.60;;;23.00;99.90;;;;;;5074449;28;20210;-72
2022/06/25 07:36:02;;;;;;;1.70;1.60;;;23.00;99.90;;;;;;5074394;28;20255;-72
2022/06/25 07:38:29;;;;;;;4.15;1.30;;;23.20;99.90;;;;;;5073854;28;20686;-75
2022/06/25 07:40:57;;;;;;;1.58;1.30;;;23.30;99.90;;;;;;5073820;28;20214;-74
2022/06/25 07:43:25;;;;;;;1.70;1.60;;;23.40;99.90;;;;;;5070780;28;20210;-71
2022/06/25 07:45:52;;;;;;;0.88;0.88;;;23.50;99.90;;;;;;5073421;28;20237;-71
2022/06/25 07:48:19;;;;;;;1.70;1.60;;;23.60;99.90;;;;;;5073477;28;20206;-72
2022/06/25 07:53:30;;;;;;;2.67;1.67;;;23.90;99.90;;;;;;5073302;28;20295;-72
2022/06/25 07:55:59;;;;;;;1.75;1.35;;;24.70;99.90;;;;;;5073525;28;20205;-72
2022/06/25 07:58:26;;;;;;;1.23;1.08;;;26.10;99.90;;;;;;5073214;28;20263;-72
2022/06/25 08:00:54;;;;;;;1.42;1.02;;;24.80;99.90;;;;;;5073429;28;20206;-74
2022/06/25 08:03:21;;;;;;;5.13;2.00;;;24.60;99.90;;;;;;5073417;28;20202;-71
2022/06/25 08:05:48;;;;;;;1.63;1.52;;;24.60;99.90;;;;;;5073364;28;20262;-71
2022/06/25 08:08:16;;;;;;;1.33;1.23;;;24.90;99.90;;;;;;5073188;28;20622;-73
2022/06/25 08:10:43;;;;;;;1.63;1.45;;;25.50;99.90;;;;;;5073087;28;20199;-72
2022/06/25 08:13:11;;;;;;;3.03;1.33;;;25.70;99.90;;;;;;5073236;28;20267;-74
2022/06/25 08:15:38;;;;;;;1.48;1.38;;;25.40;99.90;;;;;;5073104;28;20206;-72
2022/06/25 08:18:05;;;;;;;0.90;0.90;;;25.50;99.90;;;;;;5071815;28;20555;-72
2022/06/25 08:20:32;;;;;;;4.07;1.25;;;25.60;99.90;;;;;;5073073;28;20210;-70
2022/06/25 08:22:59;;;;;;;2.53;1.00;;;25.70;99.90;;;;;;5073294;28;20259;-73
2022/06/25 08:25:26;;;;;;;0.93;0.90;;;25.60;99.90;;;;;;5072143;28;20225;-71
2022/06/25 08:27:54;;;;;;;2.33;1.17;;;25.30;99.90;;;;;;5073375;28;20202;-72
2022/06/25 08:30:24;;;;;;;1.25;1.15;;;25.60;99.90;;;;;;5072906;28;20306;-71
2022/06/25 08:32:51;;;;;;;1.85;1.10;;;25.90;99.90;;;;;;5071672;28;20242;-70
2022/06/25 08:35:18;;;;;;;1.30;1.20;;;26.20;99.90;;;;;;5072551;28;20210;-71
2022/06/25 08:37:46;;;;;;;1.63;1.52;;;26.40;99.90;;;;;;5072936;28;20260;-70
2022/06/25 08:40:14;;;;;;;1.60;0.88;;;26.50;99.90;;;;;;5072276;28;20210;-72
2022/06/25 08:42:41;;;;;;;1.85;1.10;;;26.80;99.90;;;;;;5072578;28;20267;-75
2022/06/25 08:45:09;;;;;;;3.55;1.75;;;27.20;99.90;;;;;;5072427;28;20653;-72
2022/06/25 08:47:44;;;;;;;0.80;0.80;;;27.50;99.90;;;;;;5072756;28;20218;-72
2022/06/25 08:50:14;;;;;;;1.77;0.90;;;27.30;99.90;;;;;;5072396;28;20210;-73
2022/06/25 08:52:46;;;;;;;1.00;1.00;;;26.40;99.90;;;;;;5072429;28;20210;-69
2022/06/25 08:55:22;;;;;;;0.80;0.80;;;26.50;99.90;;;;;;5069861;28;20214;-71
2022/06/25 08:57:50;;;;;;;0.85;0.65;;;26.70;99.90;;;;;;5072642;28;20288;-74
2022/06/25 09:00:17;;;;;;;2.53;1.10;;;27.00;99.90;;;;;;5072247;28;20259;-71
2022/06/25 09:02:45;;;;;;;2.70;1.30;;;27.20;99.90;;;;;;5072450;28;20733;-73
2022/06/25 09:05:12;;;;;;;3.17;1.63;;;27.60;99.90;;;;;;5057768;28;20303;-71
2022/06/25 09:07:52;;;;;;;1.10;0.85;;;27.50;99.90;;;;;;5066178;28;20687;-70
2022/06/25 09:10:20;;;;;;;2.03;1.13;;;27.60;99.90;;;;;;5071445;28;20209;-71
2022/06/25 09:12:51;;;;;;;1.35;0.93;;;27.50;99.90;;;;;;5072288;28;20259;-70
2022/06/25 09:15:19;;;;;;;2.20;1.40;;;27.50;99.90;;;;;;5071469;28;20645;-68
2022/06/25 09:17:52;;;;;;;1.83;1.13;;;27.90;99.90;;;;;;5071919;28;20686;-69
2022/06/25 09:20:20;;;;;;;1.00;1.00;;;28.50;99.90;;;;;;5071852;28;20252;-71
2022/06/25 09:22:55;;;;;;;1.27;1.00;;;30.30;99.90;;;;;;5071711;28;20755;-70
2022/06/25 09:25:26;;;;;;;2.22;1.10;;;28.50;99.90;;;;;;5071811;28;20226;-72
2022/06/25 09:27:54;;;;;;;1.42;1.00;;;29.40;99.90;;;;;;5071635;28;20252;-69
2022/06/25 09:30:22;;;;;;;2.08;1.10;;;31.20;99.90;;;;;;5071561;28;20290;-69
2022/06/25 09:32:54;;;;;;;2.03;0.80;;;29.90;99.90;;;;;;5072007;28;20206;-70
2022/06/25 09:35:33;;;;;;;0.75;0.75;;;29.40;99.90;;;;;;5071431;28;20259;-74
2022/06/25 09:38:07;;;;;;;2.72;1.27;;;28.60;99.90;;;;;;5071614;28;20210;-70
2022/06/25 09:40:35;;;;;;;1.58;1.10;;;28.60;99.90;;;;;;5071854;28;20625;-71
2022/06/25 09:43:12;;;;;;;2.47;0.80;;;27.60;99.90;;;;;;5069486;28;20213;-70
2022/06/25 09:45:39;;;;;;;2.40;1.00;;;27.50;99.90;;;;;;5068657;28;20229;-71
2022/06/25 09:48:16;;;;;;;1.33;1.23;;;27.20;99.90;;;;;;5070402;28;20215;-76
2022/06/25 09:50:43;;;;;;;1.15;1.05;;;27.00;99.90;;;;;;5068928;28;20247;-73
2022/06/25 09:53:11;;;;;;;2.60;1.30;;;27.20;99.90;;;;;;5070042;28;20210;-72
2022/06/25 09:55:38;;;;;;;1.38;1.27;;;27.40;99.90;;;;;;5069780;28;20206;-75
2022/06/25 09:58:05;;;;;;;0.80;0.80;;;27.20;99.90;;;;;;5070833;28;20199;-73
2022/06/25 10:00:34;;;;;;;1.95;1.27;;;27.50;99.90;;;;;;5070003;28;20206;-72
2022/06/25 10:03:01;;;;;;;1.00;0.90;;;27.40;99.90;;;;;;5070792;28;20202;-75
2022/06/25 10:05:36;;;;;;;2.20;1.58;;;27.30;99.90;;;;;;5066033;28;20265;-78
2022/06/25 10:08:07;;;;;;;1.35;1.23;;;27.00;99.90;;;;;;5070622;28;20209;-73
2022/06/25 10:10:38;;;;;;;4.50;1.83;;;27.30;99.90;;;;;;5067343;28;20224;-73
2022/06/25 10:13:05;;;;;;;2.30;1.30;;;28.80;99.90;;;;;;5069810;28;20233;-74
2022/06/25 10:15:33;;;;;;;2.40;1.30;;;29.70;99.90;;;;;;5069104;28;20202;-75
2022/06/25 10:18:02;;;;;;;4.03;3.72;;;31.40;99.90;;;;;;5070127;28;20210;-72
2022/06/25 10:20:31;;;;;;;5.60;3.13;;;31.40;99.90;;;;;;5073069;28;20584;-75
2022/06/25 10:23:00;;;;;;;1.85;1.20;;;30.60;99.90;;;;;;5069915;28;20238;-73
2022/06/25 10:25:28;;;;;;;1.80;1.60;;;29.20;99.90;;;;;;5069071;28;20299;-74
2022/06/25 10:28:05;;;;;;;1.52;1.42;;;28.20;99.90;;;;;;5065325;28;20656;-71
2022/06/25 10:30:47;;;;;;;0.95;0.90;;;29.10;99.90;;;;;;5067491;28;20197;-74
2022/06/25 10:33:15;;;;;;;1.25;1.20;;;28.80;99.90;;;;;;5069907;28;20241;-77
2022/06/25 10:35:44;;;;;;;3.60;1.60;;;29.00;99.90;;;;;;5071681;28;20686;-72
2022/06/25 10:38:14;;;;;;;1.80;1.70;;;29.40;99.90;;;;;;5058392;28;20297;-72
2022/06/25 10:40:56;;;;;;;1.45;1.25;;;29.20;99.90;;;;;;5071143;28;20259;-74
2022/06/25 10:43:42;;;;;;;2.55;1.63;;;29.50;99.90;;;;;;5071540;28;20206;-75
2022/06/25 10:46:27;;;;;;;1.42;1.20;;;29.90;99.90;;;;;;5067283;28;20233;-72
2022/06/25 10:49:06;;;;;;;1.73;1.40;;;30.10;99.90;;;;;;5069279;28;20210;-72
2022/06/25 10:51:41;;;;;;;2.10;1.00;;;29.70;99.90;;;;;;5069839;28;20216;-73
2022/06/25 10:54:13;;;;;;;2.63;1.25;;;29.90;99.90;;;;;;5067295;28;20204;-72
2022/06/25 10:56:45;;;;;;;2.05;1.58;;;30.10;99.90;;;;;;5062610;28;20202;-73
2022/06/25 10:59:47;;;;;;;1.88;1.50;;;30.40;99.90;;;;;;5065180;28;20205;-72
2022/06/25 11:02:23;;;;;;;1.35;1.25;;;30.10;99.90;;;;;;5064611;28;20207;-73
2022/06/25 11:04:52;;;;;;;1.75;1.63;;;29.80;99.90;;;;;;5063430;28;20202;-75
2022/06/25 11:07:22;;;;;;;2.55;1.17;;;29.40;99.90;;;;;;5066964;28;20213;-76
2022/06/25 11:09:55;;;;;;;4.97;2.05;;;29.00;99.90;;;;;;5064100;28;20256;-74
2022/06/25 11:12:22;;;;;;;4.22;2.53;;;28.60;99.90;;;;;;5066037;28;20202;-74
2022/06/25 11:14:51;;;;;;;2.45;1.95;;;28.30;99.90;;;;;;5069011;28;20206;-74
2022/06/25 11:17:23;;;;;;;2.92;2.15;;;28.30;99.90;;;;;;5067005;28;20214;-74
2022/06/25 11:19:50;;;;;;;2.90;2.65;;;28.40;99.90;;;;;;5066342;28;20202;-72
2022/06/25 11:22:17;;;;;;;4.05;3.00;;;28.00;99.90;;;;;;5068372;28;20210;-72
2022/06/25 11:30:14;;;;;;;4.85;2.40;;;27.50;99.90;;;;;;5067462;28;20704;-72
2022/06/25 11:32:45;;;;;;;2.75;2.55;;;27.70;99.90;;;;;;5067022;28;20214;-75
2022/06/25 11:35:12;;;;;;;3.92;2.55;;;27.40;99.90;;;;;;5064350;28;20208;-73
2022/06/25 11:37:39;;;;;;;4.15;1.92;;;27.00;99.90;;;;;;5068503;28;20256;-73
2022/06/25 11:40:15;;;;;;;3.97;2.30;;;27.00;99.90;;;;;;5069321;28;20206;-73
2022/06/25 11:42:42;;;;;;;3.47;2.00;;;26.90;99.90;;;;;;5064576;28;20213;-72
2022/06/25 11:45:10;;;;;;;4.90;3.65;;;27.10;99.90;;;;;;5064975;28;20256;-71
2022/06/25 11:47:38;;;;;;;3.47;2.35;;;27.00;99.90;;;;;;5063475;28;20263;-72
2022/06/25 11:50:10;;;;;;;2.42;2.22;;;26.80;99.90;;;;;;5062714;28;20614;-72
2022/06/25 11:52:42;;;;;;;2.88;2.42;;;26.60;99.90;;;;;;5057665;28;20267;-73
2022/06/25 11:55:10;;;;;;;2.97;2.67;;;26.30;99.90;;;;;;5068419;28;20206;-73
2022/06/25 11:57:43;;;;;;;3.28;1.92;;;26.40;99.90;;;;;;5068996;28;20210;-71
2022/06/25 12:00:13;;;;;;;2.20;2.05;;;26.70;99.90;;;;;;5067862;28;20293;-72
2022/06/25 12:02:41;;;;;;;3.33;1.73;;;27.00;99.90;;;;;;5067389;28;20617;-72
2022/06/25 12:05:10;;;;;;;3.50;2.80;;;27.30;99.90;;;;;;5068639;28;20290;-73
2022/06/25 12:07:38;;;;;;;3.75;2.08;;;27.40;99.90;;;;;;5069258;28;20596;-72
2022/06/25 12:10:09;;;;;;;3.53;1.92;;;27.40;99.90;;;;;;5069648;28;20225;-74
2022/06/25 12:12:38;;;;;;;3.00;1.75;;;27.30;99.90;;;;;;5073249;28;20210;-71
2022/06/25 12:15:08;;;;;;;4.95;2.05;;;27.40;99.90;;;;;;5073675;28;20256;-71
2022/06/25 12:17:36;;;;;;;2.72;2.15;;;27.90;99.90;;;;;;5064941;28;20198;-72
2022/06/25 12:20:08;;;;;;;2.33;2.13;;;28.30;99.90;;;;;;5073054;28;20206;-72
2022/06/25 12:22:38;;;;;;;3.22;2.92;;;28.10;99.90;;;;;;5070770;28;20202;-71
2022/06/25 12:25:06;;;;;;;2.72;2.47;;;27.90;99.90;;;;;;5072210;28;20328;-72
2022/06/25 12:27:45;;;;;;;3.50;2.60;;;27.70;99.90;;;;;;5070411;28;20229;-72
2022/06/25 12:30:20;;;;;;;2.63;2.42;;;27.30;99.90;;;;;;5067080;28;20206;-72
2022/06/25 12:32:47;;;;;;;3.47;2.63;;;27.20;99.90;;;;;;5071130;28;20209;-72
2022/06/25 12:35:18;;;;;;;6.90;2.47;;;27.10;99.90;;;;;;5072381;28;20267;-71
2022/06/25 12:38:00;;;;;;;2.85;2.00;;;27.20;99.90;;;;;;5070974;28;20206;-72
2022/06/25 12:40:27;;;;;;;7.55;3.17;;;27.60;99.90;;;;;;5070480;28;20206;-71
2022/06/25 12:42:55;;;;;;;2.95;2.08;;;27.40;99.90;;;;;;5067153;28;20725;-71
2022/06/25 12:45:24;;;;;;;5.00;3.00;;;27.00;99.90;;;;;;5065119;28;20210;-70
2022/06/25 12:47:52;;;;;;;3.38;2.40;;;26.80;99.90;;;;;;5068188;28;20355;-70
2022/06/25 12:50:23;;;;;;;5.20;2.42;;;26.40;99.90;;;;;;5072608;28;20229;-74
2022/06/25 12:52:51;;;;;;;2.28;2.00;;;26.20;99.90;;;;;;5071816;28;20210;-69
2022/06/25 12:55:22;;;;;;;2.78;2.38;;;26.10;99.90;;;;;;5067566;28;20210;-70
2022/06/25 12:57:50;;;;;;;2.42;2.30;;;26.20;99.90;;;;;;5072894;28;20206;-71
2022/06/25 13:00:20;;;;;;;2.58;1.98;;;26.50;99.90;;;;;;5066187;28;20569;-70
2022/06/25 13:02:48;;;;;;;2.42;2.20;;;26.60;99.90;;;;;;5069990;28;20210;-70
2022/06/25 13:05:15;;;;;;;2.00;1.77;;;26.70;99.90;;;;;;5070658;28;20287;-72
2022/06/25 13:07:43;;;;;;;1.83;1.73;;;26.20;99.90;;;;;;5072248;28;20791;-70
2022/06/25 13:10:10;;;;;;;2.38;1.98;;;26.20;99.90;;;;;;5072019;28;20202;-71